sensor_id;sensor_type;location;lat;lon;timestamp;P1;durP1;ratioP1;P2;durP2;ratioP2
2706;SDS011;7819;48.046;7.642;2023-06-22T00:01:14;8.30;;;7.30;;
2706;SDS011;7819;48.046;7.642;2023-06-22T00:03:39;8.13;;;7.33;;
2706;SDS011;7819;48.046;7.642;2023-06-22T00:06:04;8.57;;;7.10;;
2706;SDS011;7819;48.046;7.642;2023-06-22T00:08:30;7.77;;;6.97;;
2706;SDS011;7819;48.046;7.642;2023-06-22T00:10:55;8.03;;;7.23;;
2706;SDS011;7819;48.046;7.642;2023-06-22T00:13:20;7.27;;;6.57;;
2706;SDS011;7819;48.046;7.642;2023-06-22T00:15:45;8.37;;;7.57;;
2706;SDS011;7819;48.046;7.642;2023-06-22T00:18:11;8.83;;;7.77;;
2706;SDS011;7819;48.046;7.642;2023-06-22T00:20:38;11.60;;;8.10;;
2706;SDS011;7819;48.046;7.642;2023-06-22T00:23:05;8.10;;;7.30;;
2706;SDS011;7819;48.046;7.642;2023-06-22T00:25:39;10.23;;;7.33;;
2706;SDS011;7819;48.046;7.642;2023-06-22T00:28:05;9.30;;;8.13;;
2706;SDS011;7819;48.046;7.642;2023-06-22T00:30:31;9.00;;;7.93;;
2706;SDS011;7819;48.046;7.642;2023-06-22T00:32:56;9.80;;;8.80;;
2706;SDS011;7819;48.046;7.642;2023-06-22T00:35:21;10.40;;;8.37;;
2706;SDS011;7819;48.046;7.642;2023-06-22T00:37:47;8.77;;;7.87;;
2706;SDS011;7819;48.046;7.642;2023-06-22T00:40:12;9.77;;;8.40;;
2706;SDS011;7819;48.046;7.642;2023-06-22T00:42:38;10.43;;;8.13;;
2706;SDS011;7819;48.046;7.642;2023-06-22T00:45:04;9.50;;;8.50;;
2706;SDS011;7819;48.046;7.642;2023-06-22T00:47:29;9.07;;;8.27;;
2706;SDS011;7819;48.046;7.642;2023-06-22T00:49:55;10.10;;;8.90;;
2706;SDS011;7819;48.046;7.642;2023-06-22T00:52:21;11.43;;;9.53;;
2706;SDS011;7819;48.046;7.642;2023-06-22T00:54:49;9.90;;;9.00;;
2706;SDS011;7819;48.046;7.642;2023-06-22T00:57:15;10.67;;;7.73;;
2706;SDS011;7819;48.046;7.642;2023-06-22T00:59:42;10.50;;;9.10;;
2706;SDS011;7819;48.046;7.642;2023-06-22T01:02:07;9.83;;;8.47;;
2706;SDS011;7819;48.046;7.642;2023-06-22T01:04:36;9.53;;;8.50;;
2706;SDS011;7819;48.046;7.642;2023-06-22T01:07:20;9.83;;;8.87;;
2706;SDS011;7819;48.046;7.642;2023-06-22T01:09:57;11.37;;;8.83;;
2706;SDS011;7819;48.046;7.642;2023-06-22T01:12:23;8.83;;;7.93;;
2706;SDS011;7819;48.046;7.642;2023-06-22T01:14:52;9.93;;;8.97;;
2706;SDS011;7819;48.046;7.642;2023-06-22T01:17:19;9.80;;;8.77;;
2706;SDS011;7819;48.046;7.642;2023-06-22T01:19:45;10.40;;;9.30;;
2706;SDS011;7819;48.046;7.642;2023-06-22T01:22:20;10.00;;;9.03;;
2706;SDS011;7819;48.046;7.642;2023-06-22T01:29:42;9.70;;;8.70;;
2706;SDS011;7819;48.046;7.642;2023-06-22T01:32:08;12.27;;;10.73;;
2706;SDS011;7819;48.046;7.642;2023-06-22T01:34:34;9.90;;;8.60;;
2706;SDS011;7819;48.046;7.642;2023-06-22T01:37:00;10.43;;;9.40;;
2706;SDS011;7819;48.046;7.642;2023-06-22T01:39:26;11.90;;;10.60;;
2706;SDS011;7819;48.046;7.642;2023-06-22T01:41:52;12.30;;;9.10;;
2706;SDS011;7819;48.046;7.642;2023-06-22T01:44:18;11.17;;;10.07;;
2706;SDS011;7819;48.046;7.642;2023-06-22T01:46:43;11.40;;;9.50;;
2706;SDS011;7819;48.046;7.642;2023-06-22T01:49:09;10.90;;;9.80;;
2706;SDS011;7819;48.046;7.642;2023-06-22T01:51:34;14.10;;;10.10;;
2706;SDS011;7819;48.046;7.642;2023-06-22T01:53:59;12.60;;;10.20;;
2706;SDS011;7819;48.046;7.642;2023-06-22T01:56:25;10.93;;;9.80;;
2706;SDS011;7819;48.046;7.642;2023-06-22T01:58:58;12.00;;;10.23;;
2706;SDS011;7819;48.046;7.642;2023-06-22T02:01:24;11.80;;;10.57;;
2706;SDS011;7819;48.046;7.642;2023-06-22T02:03:53;11.40;;;10.20;;
2706;SDS011;7819;48.046;7.642;2023-06-22T02:06:23;11.23;;;10.13;;
2706;SDS011;7819;48.046;7.642;2023-06-22T02:08:51;12.03;;;10.83;;
2706;SDS011;7819;48.046;7.642;2023-06-22T02:11:18;11.70;;;10.30;;
2706;SDS011;7819;48.046;7.642;2023-06-22T02:13:45;12.70;;;11.00;;
2706;SDS011;7819;48.046;7.642;2023-06-22T02:16:11;10.80;;;9.70;;
2706;SDS011;7819;48.046;7.642;2023-06-22T02:18:36;11.60;;;10.40;;
2706;SDS011;7819;48.046;7.642;2023-06-22T02:21:02;11.10;;;9.97;;
2706;SDS011;7819;48.046;7.642;2023-06-22T02:23:27;11.77;;;9.80;;
2706;SDS011;7819;48.046;7.642;2023-06-22T02:25:53;9.80;;;8.83;;
2706;SDS011;7819;48.046;7.642;2023-06-22T02:28:18;13.03;;;10.07;;
2706;SDS011;7819;48.046;7.642;2023-06-22T02:30:43;10.80;;;9.37;;
2706;SDS011;7819;48.046;7.642;2023-06-22T02:33:08;11.57;;;10.37;;
2706;SDS011;7819;48.046;7.642;2023-06-22T02:35:34;11.00;;;9.47;;
2706;SDS011;7819;48.046;7.642;2023-06-22T02:38:01;11.47;;;10.37;;
2706;SDS011;7819;48.046;7.642;2023-06-22T02:40:26;11.13;;;10.10;;
2706;SDS011;7819;48.046;7.642;2023-06-22T02:42:51;12.30;;;11.00;;
2706;SDS011;7819;48.046;7.642;2023-06-22T02:45:17;14.20;;;11.57;;
2706;SDS011;7819;48.046;7.642;2023-06-22T02:47:42;13.53;;;9.50;;
2706;SDS011;7819;48.046;7.642;2023-06-22T02:50:07;11.80;;;10.60;;
2706;SDS011;7819;48.046;7.642;2023-06-22T02:52:32;15.20;;;12.47;;
2706;SDS011;7819;48.046;7.642;2023-06-22T02:54:58;12.57;;;11.37;;
2706;SDS011;7819;48.046;7.642;2023-06-22T02:57:24;11.37;;;10.07;;
2706;SDS011;7819;48.046;7.642;2023-06-22T02:59:49;9.93;;;8.93;;
2706;SDS011;7819;48.046;7.642;2023-06-22T03:02:14;11.63;;;9.97;;
2706;SDS011;7819;48.046;7.642;2023-06-22T03:04:39;11.80;;;10.40;;
2706;SDS011;7819;48.046;7.642;2023-06-22T03:07:04;12.80;;;11.60;;
2706;SDS011;7819;48.046;7.642;2023-06-22T03:09:30;16.63;;;14.90;;
2706;SDS011;7819;48.046;7.642;2023-06-22T03:11:55;15.10;;;11.87;;
2706;SDS011;7819;48.046;7.642;2023-06-22T03:14:20;12.63;;;11.20;;
2706;SDS011;7819;48.046;7.642;2023-06-22T03:16:45;15.83;;;13.20;;
2706;SDS011;7819;48.046;7.642;2023-06-22T03:19:11;13.50;;;11.50;;
2706;SDS011;7819;48.046;7.642;2023-06-22T03:21:37;12.43;;;11.13;;
2706;SDS011;7819;48.046;7.642;2023-06-22T03:24:03;12.20;;;10.90;;
2706;SDS011;7819;48.046;7.642;2023-06-22T03:26:28;12.07;;;10.97;;
2706;SDS011;7819;48.046;7.642;2023-06-22T03:28:55;11.90;;;10.60;;
2706;SDS011;7819;48.046;7.642;2023-06-22T03:31:20;14.10;;;11.60;;
2706;SDS011;7819;48.046;7.642;2023-06-22T03:33:46;12.43;;;11.13;;
2706;SDS011;7819;48.046;7.642;2023-06-22T03:36:11;13.53;;;11.50;;
2706;SDS011;7819;48.046;7.642;2023-06-22T03:38:37;13.00;;;11.70;;
2706;SDS011;7819;48.046;7.642;2023-06-22T03:41:02;12.63;;;11.43;;
2706;SDS011;7819;48.046;7.642;2023-06-22T03:43:27;13.10;;;10.90;;
2706;SDS011;7819;48.046;7.642;2023-06-22T03:45:52;11.60;;;10.00;;
2706;SDS011;7819;48.046;7.642;2023-06-22T03:48:17;11.90;;;10.70;;
2706;SDS011;7819;48.046;7.642;2023-06-22T03:50:43;13.17;;;11.77;;
2706;SDS011;7819;48.046;7.642;2023-06-22T03:53:09;12.70;;;11.40;;
2706;SDS011;7819;48.046;7.642;2023-06-22T03:55:35;14.60;;;13.10;;
2706;SDS011;7819;48.046;7.642;2023-06-22T03:58:00;13.73;;;11.90;;
2706;SDS011;7819;48.046;7.642;2023-06-22T04:00:30;12.87;;;11.57;;
2706;SDS011;7819;48.046;7.642;2023-06-22T04:02:55;12.73;;;10.30;;
2706;SDS011;7819;48.046;7.642;2023-06-22T04:05:20;14.63;;;10.90;;
2706;SDS011;7819;48.046;7.642;2023-06-22T04:07:46;10.10;;;8.97;;
2706;SDS011;7819;48.046;7.642;2023-06-22T04:10:11;12.03;;;10.77;;
2706;SDS011;7819;48.046;7.642;2023-06-22T04:12:36;11.60;;;10.23;;
2706;SDS011;7819;48.046;7.642;2023-06-22T04:15:01;12.60;;;11.40;;
2706;SDS011;7819;48.046;7.642;2023-06-22T04:17:27;10.23;;;9.13;;
2706;SDS011;7819;48.046;7.642;2023-06-22T04:19:52;10.90;;;9.90;;
2706;SDS011;7819;48.046;7.642;2023-06-22T04:22:17;12.63;;;9.70;;
2706;SDS011;7819;48.046;7.642;2023-06-22T04:24:43;9.63;;;8.63;;
2706;SDS011;7819;48.046;7.642;2023-06-22T04:27:09;10.43;;;9.33;;
2706;SDS011;7819;48.046;7.642;2023-06-22T04:29:34;12.03;;;9.53;;
2706;SDS011;7819;48.046;7.642;2023-06-22T04:31:59;10.93;;;9.67;;
2706;SDS011;7819;48.046;7.642;2023-06-22T04:34:28;11.73;;;8.77;;
2706;SDS011;7819;48.046;7.642;2023-06-22T04:36:53;9.70;;;8.70;;
2706;SDS011;7819;48.046;7.642;2023-06-22T04:39:18;10.73;;;9.63;;
2706;SDS011;7819;48.046;7.642;2023-06-22T04:41:44;12.37;;;11.17;;
2706;SDS011;7819;48.046;7.642;2023-06-22T04:46:34;16.90;;;11.47;;
2706;SDS011;7819;48.046;7.642;2023-06-22T04:49:08;13.83;;;12.43;;
2706;SDS011;7819;48.046;7.642;2023-06-22T04:51:40;15.13;;;11.90;;
2706;SDS011;7819;48.046;7.642;2023-06-22T04:54:06;15.60;;;12.10;;
2706;SDS011;7819;48.046;7.642;2023-06-22T04:56:32;14.57;;;13.07;;
2706;SDS011;7819;48.046;7.642;2023-06-22T04:58:57;16.10;;;12.17;;
2706;SDS011;7819;48.046;7.642;2023-06-22T05:01:23;14.53;;;13.07;;
2706;SDS011;7819;48.046;7.642;2023-06-22T05:03:48;14.13;;;11.60;;
2706;SDS011;7819;48.046;7.642;2023-06-22T05:06:13;15.07;;;13.57;;
2706;SDS011;7819;48.046;7.642;2023-06-22T05:08:39;13.97;;;12.57;;
2706;SDS011;7819;48.046;7.642;2023-06-22T05:11:04;16.10;;;13.70;;
2706;SDS011;7819;48.046;7.642;2023-06-22T05:13:30;14.70;;;12.93;;
2706;SDS011;7819;48.046;7.642;2023-06-22T05:15:55;16.73;;;13.70;;
2706;SDS011;7819;48.046;7.642;2023-06-22T05:18:25;16.53;;;14.77;;
2706;SDS011;7819;48.046;7.642;2023-06-22T05:20:51;16.80;;;15.03;;
2706;SDS011;7819;48.046;7.642;2023-06-22T05:23:17;15.77;;;13.57;;
2706;SDS011;7819;48.046;7.642;2023-06-22T05:25:42;15.87;;;13.90;;
2706;SDS011;7819;48.046;7.642;2023-06-22T05:28:07;14.93;;;13.33;;
2706;SDS011;7819;48.046;7.642;2023-06-22T05:30:35;19.90;;;15.57;;
2706;SDS011;7819;48.046;7.642;2023-06-22T05:33:00;22.47;;;14.70;;
2706;SDS011;7819;48.046;7.642;2023-06-22T05:35:26;15.13;;;13.50;;
2706;SDS011;7819;48.046;7.642;2023-06-22T05:37:51;19.83;;;15.40;;
2706;SDS011;7819;48.046;7.642;2023-06-22T05:40:16;16.03;;;13.23;;
2706;SDS011;7819;48.046;7.642;2023-06-22T05:42:42;17.57;;;14.10;;
2706;SDS011;7819;48.046;7.642;2023-06-22T05:45:07;15.43;;;13.90;;
2706;SDS011;7819;48.046;7.642;2023-06-22T05:47:32;16.70;;;14.60;;
2706;SDS011;7819;48.046;7.642;2023-06-22T05:49:58;16.47;;;14.60;;
2706;SDS011;7819;48.046;7.642;2023-06-22T05:52:23;19.23;;;13.63;;
2706;SDS011;7819;48.046;7.642;2023-06-22T05:54:48;15.67;;;13.90;;
2706;SDS011;7819;48.046;7.642;2023-06-22T05:57:13;19.67;;;14.67;;
2706;SDS011;7819;48.046;7.642;2023-06-22T05:59:38;16.70;;;14.97;;
2706;SDS011;7819;48.046;7.642;2023-06-22T06:02:04;15.13;;;13.53;;
2706;SDS011;7819;48.046;7.642;2023-06-22T06:04:29;17.73;;;13.63;;
2706;SDS011;7819;48.046;7.642;2023-06-22T06:06:55;15.57;;;13.90;;
2706;SDS011;7819;48.046;7.642;2023-06-22T06:09:20;14.93;;;12.87;;
2706;SDS011;7819;48.046;7.642;2023-06-22T06:11:45;14.93;;;13.30;;
2706;SDS011;7819;48.046;7.642;2023-06-22T06:14:10;14.67;;;13.00;;
2706;SDS011;7819;48.046;7.642;2023-06-22T06:16:35;15.00;;;13.20;;
2706;SDS011;7819;48.046;7.642;2023-06-22T06:19:01;14.80;;;13.30;;
2706;SDS011;7819;48.046;7.642;2023-06-22T06:21:26;16.70;;;12.70;;
2706;SDS011;7819;48.046;7.642;2023-06-22T06:23:51;14.97;;;12.23;;
2706;SDS011;7819;48.046;7.642;2023-06-22T06:26:18;14.00;;;12.33;;
2706;SDS011;7819;48.046;7.642;2023-06-22T06:28:52;13.33;;;11.97;;
2706;SDS011;7819;48.046;7.642;2023-06-22T06:31:17;14.90;;;13.50;;
2706;SDS011;7819;48.046;7.642;2023-06-22T06:33:43;13.47;;;12.17;;
2706;SDS011;7819;48.046;7.642;2023-06-22T06:36:08;15.23;;;13.63;;
2706;SDS011;7819;48.046;7.642;2023-06-22T06:38:33;15.70;;;13.33;;
2706;SDS011;7819;48.046;7.642;2023-06-22T06:40:58;14.47;;;12.93;;
2706;SDS011;7819;48.046;7.642;2023-06-22T06:43:24;14.83;;;12.67;;
2706;SDS011;7819;48.046;7.642;2023-06-22T06:45:49;14.37;;;12.87;;
2706;SDS011;7819;48.046;7.642;2023-06-22T06:48:14;17.43;;;15.70;;
2706;SDS011;7819;48.046;7.642;2023-06-22T06:50:40;14.73;;;12.80;;
2706;SDS011;7819;48.046;7.642;2023-06-22T06:53:05;17.17;;;14.60;;
2706;SDS011;7819;48.046;7.642;2023-06-22T06:55:31;15.53;;;13.93;;
2706;SDS011;7819;48.046;7.642;2023-06-22T06:57:57;15.43;;;13.73;;
2706;SDS011;7819;48.046;7.642;2023-06-22T07:00:23;17.67;;;13.73;;
2706;SDS011;7819;48.046;7.642;2023-06-22T07:02:50;19.97;;;15.30;;
2706;SDS011;7819;48.046;7.642;2023-06-22T07:05:15;16.77;;;15.00;;
2706;SDS011;7819;48.046;7.642;2023-06-22T07:07:40;17.83;;;15.30;;
2706;SDS011;7819;48.046;7.642;2023-06-22T07:10:06;21.43;;;17.40;;
2706;SDS011;7819;48.046;7.642;2023-06-22T07:12:32;23.07;;;17.77;;
2706;SDS011;7819;48.046;7.642;2023-06-22T07:15:03;18.13;;;16.33;;
2706;SDS011;7819;48.046;7.642;2023-06-22T07:17:29;17.90;;;16.00;;
2706;SDS011;7819;48.046;7.642;2023-06-22T07:19:54;21.03;;;15.63;;
2706;SDS011;7819;48.046;7.642;2023-06-22T07:22:19;17.47;;;15.23;;
2706;SDS011;7819;48.046;7.642;2023-06-22T07:24:44;16.20;;;14.47;;
2706;SDS011;7819;48.046;7.642;2023-06-22T07:27:10;17.43;;;13.47;;
2706;SDS011;7819;48.046;7.642;2023-06-22T07:29:37;17.07;;;15.10;;
2706;SDS011;7819;48.046;7.642;2023-06-22T07:32:04;17.87;;;16.10;;
2706;SDS011;7819;48.046;7.642;2023-06-22T07:34:30;20.87;;;15.50;;
2706;SDS011;7819;48.046;7.642;2023-06-22T07:36:55;16.70;;;15.07;;
2706;SDS011;7819;48.046;7.642;2023-06-22T07:39:20;18.97;;;16.93;;
2706;SDS011;7819;48.046;7.642;2023-06-22T07:41:50;19.53;;;15.70;;
2706;SDS011;7819;48.046;7.642;2023-06-22T07:44:16;19.00;;;15.87;;
2706;SDS011;7819;48.046;7.642;2023-06-22T07:46:41;19.10;;;16.30;;
2706;SDS011;7819;48.046;7.642;2023-06-22T07:49:06;17.30;;;14.13;;
2706;SDS011;7819;48.046;7.642;2023-06-22T07:51:33;16.90;;;14.60;;
2706;SDS011;7819;48.046;7.642;2023-06-22T07:53:58;16.90;;;15.10;;
2706;SDS011;7819;48.046;7.642;2023-06-22T07:56:23;16.77;;;14.87;;
2706;SDS011;7819;48.046;7.642;2023-06-22T07:58:48;17.17;;;14.37;;
2706;SDS011;7819;48.046;7.642;2023-06-22T08:01:14;15.60;;;14.00;;
2706;SDS011;7819;48.046;7.642;2023-06-22T08:03:39;16.83;;;14.50;;
2706;SDS011;7819;48.046;7.642;2023-06-22T08:06:05;15.67;;;14.07;;
2706;SDS011;7819;48.046;7.642;2023-06-22T08:08:30;16.27;;;14.23;;
2706;SDS011;7819;48.046;7.642;2023-06-22T08:10:56;17.50;;;14.27;;
2706;SDS011;7819;48.046;7.642;2023-06-22T08:13:21;16.57;;;14.87;;
2706;SDS011;7819;48.046;7.642;2023-06-22T08:15:46;16.60;;;14.93;;
2706;SDS011;7819;48.046;7.642;2023-06-22T08:18:12;14.93;;;12.47;;
2706;SDS011;7819;48.046;7.642;2023-06-22T08:20:37;13.50;;;12.10;;
2706;SDS011;7819;48.046;7.642;2023-06-22T08:23:02;16.13;;;12.03;;
2706;SDS011;7819;48.046;7.642;2023-06-22T08:25:31;12.97;;;11.63;;
2706;SDS011;7819;48.046;7.642;2023-06-22T08:27:57;15.17;;;13.30;;
2706;SDS011;7819;48.046;7.642;2023-06-22T08:30:22;17.87;;;13.57;;
2706;SDS011;7819;48.046;7.642;2023-06-22T08:32:48;15.30;;;11.80;;
2706;SDS011;7819;48.046;7.642;2023-06-22T08:35:13;12.63;;;10.27;;
2706;SDS011;7819;48.046;7.642;2023-06-22T08:37:38;13.33;;;11.90;;
2706;SDS011;7819;48.046;7.642;2023-06-22T08:40:04;13.63;;;12.20;;
2706;SDS011;7819;48.046;7.642;2023-06-22T08:42:30;13.10;;;11.63;;
2706;SDS011;7819;48.046;7.642;2023-06-22T08:44:56;11.83;;;10.67;;
2706;SDS011;7819;48.046;7.642;2023-06-22T08:47:21;12.60;;;11.33;;
2706;SDS011;7819;48.046;7.642;2023-06-22T08:49:47;12.33;;;11.13;;
2706;SDS011;7819;48.046;7.642;2023-06-22T08:52:13;13.33;;;11.53;;
2706;SDS011;7819;48.046;7.642;2023-06-22T08:54:38;13.00;;;11.40;;
2706;SDS011;7819;48.046;7.642;2023-06-22T08:57:03;14.30;;;11.40;;
2706;SDS011;7819;48.046;7.642;2023-06-22T08:59:28;11.87;;;10.60;;
2706;SDS011;7819;48.046;7.642;2023-06-22T09:01:53;13.60;;;11.00;;
2706;SDS011;7819;48.046;7.642;2023-06-22T09:04:19;11.63;;;9.30;;
2706;SDS011;7819;48.046;7.642;2023-06-22T09:06:46;10.27;;;9.00;;
2706;SDS011;7819;48.046;7.642;2023-06-22T09:09:12;14.37;;;10.40;;
2706;SDS011;7819;48.046;7.642;2023-06-22T09:11:37;14.70;;;11.60;;
2706;SDS011;7819;48.046;7.642;2023-06-22T09:14:03;9.47;;;8.60;;
2706;SDS011;7819;48.046;7.642;2023-06-22T09:16:28;9.80;;;8.80;;
2706;SDS011;7819;48.046;7.642;2023-06-22T09:18:54;10.10;;;9.00;;
2706;SDS011;7819;48.046;7.642;2023-06-22T09:21:19;13.60;;;9.90;;
2706;SDS011;7819;48.046;7.642;2023-06-22T09:23:44;11.30;;;9.00;;
2706;SDS011;7819;48.046;7.642;2023-06-22T09:26:11;11.70;;;9.13;;
2706;SDS011;7819;48.046;7.642;2023-06-22T09:28:37;8.60;;;7.80;;
2706;SDS011;7819;48.046;7.642;2023-06-22T09:31:02;9.90;;;8.80;;
2706;SDS011;7819;48.046;7.642;2023-06-22T09:33:27;10.77;;;9.70;;
2706;SDS011;7819;48.046;7.642;2023-06-22T09:35:53;9.87;;;8.87;;
2706;SDS011;7819;48.046;7.642;2023-06-22T09:38:18;12.57;;;10.13;;
2706;SDS011;7819;48.046;7.642;2023-06-22T09:40:43;9.47;;;8.33;;
2706;SDS011;7819;48.046;7.642;2023-06-22T09:43:08;12.00;;;7.87;;
2706;SDS011;7819;48.046;7.642;2023-06-22T09:45:33;9.13;;;8.23;;
2706;SDS011;7819;48.046;7.642;2023-06-22T09:47:59;11.03;;;8.30;;
2706;SDS011;7819;48.046;7.642;2023-06-22T09:50:24;10.87;;;8.37;;
2706;SDS011;7819;48.046;7.642;2023-06-22T09:52:49;9.50;;;7.67;;
2706;SDS011;7819;48.046;7.642;2023-06-22T09:55:19;7.67;;;6.60;;
2706;SDS011;7819;48.046;7.642;2023-06-22T09:57:44;13.87;;;7.90;;
2706;SDS011;7819;48.046;7.642;2023-06-22T10:00:10;8.10;;;7.30;;
2706;SDS011;7819;48.046;7.642;2023-06-22T10:02:38;8.70;;;7.60;;
2706;SDS011;7819;48.046;7.642;2023-06-22T10:05:03;7.73;;;6.70;;
2706;SDS011;7819;48.046;7.642;2023-06-22T10:07:28;7.97;;;6.47;;
2706;SDS011;7819;48.046;7.642;2023-06-22T10:09:53;7.13;;;6.50;;
2706;SDS011;7819;48.046;7.642;2023-06-22T10:12:19;8.00;;;7.20;;
2706;SDS011;7819;48.046;7.642;2023-06-22T10:14:44;8.73;;;7.47;;
2706;SDS011;7819;48.046;7.642;2023-06-22T10:17:09;8.00;;;7.00;;
2706;SDS011;7819;48.046;7.642;2023-06-22T10:19:34;10.30;;;8.03;;
2706;SDS011;7819;48.046;7.642;2023-06-22T10:22:02;11.20;;;7.10;;
2706;SDS011;7819;48.046;7.642;2023-06-22T10:24:27;9.87;;;7.10;;
2706;SDS011;7819;48.046;7.642;2023-06-22T10:26:52;8.60;;;7.80;;
2706;SDS011;7819;48.046;7.642;2023-06-22T10:29:18;11.80;;;7.23;;
2706;SDS011;7819;48.046;7.642;2023-06-22T10:31:43;8.77;;;7.13;;
2706;SDS011;7819;48.046;7.642;2023-06-22T10:34:08;10.47;;;8.63;;
2706;SDS011;7819;48.046;7.642;2023-06-22T10:36:33;8.53;;;7.00;;
2706;SDS011;7819;48.046;7.642;2023-06-22T10:38:58;10.67;;;8.60;;
2706;SDS011;7819;48.046;7.642;2023-06-22T10:41:24;10.17;;;7.70;;
2706;SDS011;7819;48.046;7.642;2023-06-22T10:43:49;9.90;;;7.93;;
2706;SDS011;7819;48.046;7.642;2023-06-22T10:46:14;17.10;;;9.50;;
2706;SDS011;7819;48.046;7.642;2023-06-22T10:48:40;9.57;;;7.20;;
2706;SDS011;7819;48.046;7.642;2023-06-22T10:51:05;9.53;;;7.93;;
2706;SDS011;7819;48.046;7.642;2023-06-22T10:53:30;8.40;;;6.60;;
2706;SDS011;7819;48.046;7.642;2023-06-22T10:55:55;8.63;;;7.70;;
2706;SDS011;7819;48.046;7.642;2023-06-22T10:58:20;8.63;;;7.33;;
2706;SDS011;7819;48.046;7.642;2023-06-22T11:00:46;13.50;;;6.90;;
2706;SDS011;7819;48.046;7.642;2023-06-22T11:03:11;12.60;;;7.60;;
2706;SDS011;7819;48.046;7.642;2023-06-22T11:05:37;188.15;;;27.08;;
2706;SDS011;7819;48.046;7.642;2023-06-22T11:08:02;13.87;;;7.90;;
2706;SDS011;7819;48.046;7.642;2023-06-22T11:10:27;13.63;;;9.37;;
2706;SDS011;7819;48.046;7.642;2023-06-22T11:12:52;11.70;;;8.90;;
2706;SDS011;7819;48.046;7.642;2023-06-22T11:15:18;10.23;;;9.20;;
2706;SDS011;7819;48.046;7.642;2023-06-22T11:17:43;15.77;;;9.50;;
2706;SDS011;7819;48.046;7.642;2023-06-22T11:20:08;10.43;;;9.30;;
2706;SDS011;7819;48.046;7.642;2023-06-22T11:22:35;10.20;;;8.30;;
2706;SDS011;7819;48.046;7.642;2023-06-22T11:25:01;9.60;;;6.60;;
2706;SDS011;7819;48.046;7.642;2023-06-22T11:27:26;11.30;;;7.40;;
2706;SDS011;7819;48.046;7.642;2023-06-22T11:29:51;20.03;;;10.07;;
2706;SDS011;7819;48.046;7.642;2023-06-22T11:32:17;9.20;;;8.30;;
2706;SDS011;7819;48.046;7.642;2023-06-22T11:34:43;9.07;;;7.30;;
2706;SDS011;7819;48.046;7.642;2023-06-22T11:37:08;8.97;;;7.50;;
2706;SDS011;7819;48.046;7.642;2023-06-22T11:39:33;8.67;;;7.10;;
2706;SDS011;7819;48.046;7.642;2023-06-22T11:41:58;7.20;;;6.50;;
2706;SDS011;7819;48.046;7.642;2023-06-22T11:44:24;9.17;;;7.30;;
2706;SDS011;7819;48.046;7.642;2023-06-22T11:46:49;8.10;;;6.53;;
2706;SDS011;7819;48.046;7.642;2023-06-22T11:49:14;14.17;;;8.50;;
2706;SDS011;7819;48.046;7.642;2023-06-22T11:51:39;9.83;;;7.00;;
2706;SDS011;7819;48.046;7.642;2023-06-22T11:54:04;12.10;;;8.50;;
2706;SDS011;7819;48.046;7.642;2023-06-22T11:56:29;13.13;;;7.70;;
2706;SDS011;7819;48.046;7.642;2023-06-22T11:58:55;12.13;;;7.80;;
2706;SDS011;7819;48.046;7.642;2023-06-22T12:01:20;11.33;;;6.80;;
2706;SDS011;7819;48.046;7.642;2023-06-22T12:03:46;9.83;;;7.20;;
2706;SDS011;7819;48.046;7.642;2023-06-22T12:06:11;8.17;;;7.30;;
2706;SDS011;7819;48.046;7.642;2023-06-22T12:08:37;7.93;;;7.13;;
2706;SDS011;7819;48.046;7.642;2023-06-22T12:11:02;8.40;;;7.17;;
2706;SDS011;7819;48.046;7.642;2023-06-22T12:13:27;11.10;;;8.57;;
2706;SDS011;7819;48.046;7.642;2023-06-22T12:15:52;10.27;;;7.67;;
2706;SDS011;7819;48.046;7.642;2023-06-22T12:18:18;8.70;;;6.37;;
2706;SDS011;7819;48.046;7.642;2023-06-22T12:20:45;10.17;;;6.80;;
2706;SDS011;7819;48.046;7.642;2023-06-22T12:23:10;8.43;;;5.97;;
2706;SDS011;7819;48.046;7.642;2023-06-22T12:25:36;8.03;;;5.87;;
2706;SDS011;7819;48.046;7.642;2023-06-22T12:28:01;8.87;;;6.23;;
2706;SDS011;7819;48.046;7.642;2023-06-22T12:30:26;9.40;;;7.40;;
2706;SDS011;7819;48.046;7.642;2023-06-22T12:32:51;6.50;;;5.90;;
2706;SDS011;7819;48.046;7.642;2023-06-22T12:35:16;10.53;;;5.90;;
2706;SDS011;7819;48.046;7.642;2023-06-22T12:37:42;8.60;;;6.63;;
2706;SDS011;7819;48.046;7.642;2023-06-22T12:40:07;7.93;;;6.37;;
2706;SDS011;7819;48.046;7.642;2023-06-22T12:42:33;8.40;;;7.50;;
2706;SDS011;7819;48.046;7.642;2023-06-22T12:44:58;7.80;;;5.63;;
2706;SDS011;7819;48.046;7.642;2023-06-22T12:47:23;15.27;;;7.27;;
2706;SDS011;7819;48.046;7.642;2023-06-22T12:49:48;12.17;;;5.80;;
2706;SDS011;7819;48.046;7.642;2023-06-22T12:52:13;9.10;;;6.43;;
2706;SDS011;7819;48.046;7.642;2023-06-22T12:54:38;11.70;;;6.70;;
2706;SDS011;7819;48.046;7.642;2023-06-22T12:57:04;7.20;;;6.43;;
2706;SDS011;7819;48.046;7.642;2023-06-22T12:59:29;7.07;;;5.63;;
2706;SDS011;7819;48.046;7.642;2023-06-22T13:01:54;7.80;;;6.43;;
2706;SDS011;7819;48.046;7.642;2023-06-22T13:04:20;11.73;;;6.67;;
2706;SDS011;7819;48.046;7.642;2023-06-22T13:06:46;10.33;;;6.57;;
2706;SDS011;7819;48.046;7.642;2023-06-22T13:09:14;6.43;;;5.77;;
2706;SDS011;7819;48.046;7.642;2023-06-22T13:11:40;11.90;;;6.13;;
2706;SDS011;7819;48.046;7.642;2023-06-22T13:14:05;7.70;;;6.37;;
2706;SDS011;7819;48.046;7.642;2023-06-22T13:16:30;12.40;;;7.00;;
2706;SDS011;7819;48.046;7.642;2023-06-22T13:18:56;9.20;;;6.03;;
2706;SDS011;7819;48.046;7.642;2023-06-22T13:21:21;12.57;;;5.77;;
2706;SDS011;7819;48.046;7.642;2023-06-22T13:23:46;6.77;;;6.10;;
2706;SDS011;7819;48.046;7.642;2023-06-22T13:26:11;10.50;;;5.53;;
2706;SDS011;7819;48.046;7.642;2023-06-22T13:28:36;6.70;;;5.40;;
2706;SDS011;7819;48.046;7.642;2023-06-22T13:31:01;8.80;;;5.70;;
2706;SDS011;7819;48.046;7.642;2023-06-22T13:33:27;8.10;;;5.67;;
2706;SDS011;7819;48.046;7.642;2023-06-22T13:35:52;10.27;;;6.00;;
2706;SDS011;7819;48.046;7.642;2023-06-22T13:38:17;9.40;;;6.20;;
2706;SDS011;7819;48.046;7.642;2023-06-22T13:40:42;7.23;;;5.10;;
2706;SDS011;7819;48.046;7.642;2023-06-22T13:43:07;7.97;;;4.67;;
2706;SDS011;7819;48.046;7.642;2023-06-22T13:45:33;10.80;;;5.10;;
2706;SDS011;7819;48.046;7.642;2023-06-22T13:47:58;10.43;;;5.20;;
2706;SDS011;7819;48.046;7.642;2023-06-22T13:50:23;11.27;;;5.27;;
2706;SDS011;7819;48.046;7.642;2023-06-22T13:52:48;11.17;;;5.87;;
2706;SDS011;7819;48.046;7.642;2023-06-22T13:55:14;14.40;;;6.37;;
2706;SDS011;7819;48.046;7.642;2023-06-22T13:57:39;8.60;;;6.13;;
2706;SDS011;7819;48.046;7.642;2023-06-22T14:00:05;13.03;;;5.97;;
2706;SDS011;7819;48.046;7.642;2023-06-22T14:02:30;11.00;;;5.10;;
2706;SDS011;7819;48.046;7.642;2023-06-22T14:04:56;10.17;;;5.53;;
2706;SDS011;7819;48.046;7.642;2023-06-22T14:07:21;9.40;;;6.20;;
2706;SDS011;7819;48.046;7.642;2023-06-22T14:09:46;12.43;;;5.67;;
2706;SDS011;7819;48.046;7.642;2023-06-22T14:12:11;7.37;;;5.03;;
2706;SDS011;7819;48.046;7.642;2023-06-22T14:14:37;7.30;;;5.50;;
2706;SDS011;7819;48.046;7.642;2023-06-22T14:17:03;12.07;;;4.80;;
2706;SDS011;7819;48.046;7.642;2023-06-22T14:19:28;7.33;;;5.57;;
2706;SDS011;7819;48.046;7.642;2023-06-22T14:21:53;9.47;;;5.20;;
2706;SDS011;7819;48.046;7.642;2023-06-22T14:24:18;10.50;;;5.27;;
2706;SDS011;7819;48.046;7.642;2023-06-22T14:26:43;7.10;;;4.60;;
2706;SDS011;7819;48.046;7.642;2023-06-22T14:29:09;8.60;;;5.00;;
2706;SDS011;7819;48.046;7.642;2023-06-22T14:31:34;8.20;;;4.73;;
2706;SDS011;7819;48.046;7.642;2023-06-22T14:33:59;10.77;;;5.67;;
2706;SDS011;7819;48.046;7.642;2023-06-22T14:36:25;11.43;;;6.10;;
2706;SDS011;7819;48.046;7.642;2023-06-22T14:38:50;5.97;;;5.43;;
2706;SDS011;7819;48.046;7.642;2023-06-22T14:41:15;6.60;;;4.50;;
2706;SDS011;7819;48.046;7.642;2023-06-22T14:43:49;9.80;;;4.60;;
2706;SDS011;7819;48.046;7.642;2023-06-22T14:46:15;9.13;;;5.10;;
2706;SDS011;7819;48.046;7.642;2023-06-22T14:48:41;6.60;;;4.73;;
2706;SDS011;7819;48.046;7.642;2023-06-22T14:51:06;11.13;;;5.73;;
2706;SDS011;7819;48.046;7.642;2023-06-22T14:53:31;11.10;;;4.83;;
2706;SDS011;7819;48.046;7.642;2023-06-22T14:55:56;13.27;;;5.47;;
2706;SDS011;7819;48.046;7.642;2023-06-22T14:58:21;5.90;;;4.70;;